sensor_id;sensor_type;location;lat;lon;timestamp;pressure;altitude;pressure_sealevel;temperature;humidity
4590;BME280;2307;48.448;9.216;2022-09-13T00:00:17;95084.28;;;17.46;97.56
4590;BME280;2307;48.448;9.216;2022-09-13T00:02:44;95086.00;;;17.37;98.11
4590;BME280;2307;48.448;9.216;2022-09-13T00:05:12;95074.28;;;17.33;97.60
4590;BME280;2307;48.448;9.216;2022-09-13T00:07:38;95069.78;;;17.52;98.25
4590;BME280;2307;48.448;9.216;2022-09-13T00:10:04;95060.47;;;17.49;99.77
4590;BME280;2307;48.448;9.216;2022-09-13T00:12:31;95047.94;;;17.50;98.90
4590;BME280;2307;48.448;9.216;2022-09-13T00:14:57;95050.06;;;17.48;98.44
4590;BME280;2307;48.448;9.216;2022-09-13T00:17:24;95042.25;;;17.33;96.18
4590;BME280;2307;48.448;9.216;2022-09-13T00:19:51;95042.94;;;17.20;98.84
4590;BME280;2307;48.448;9.216;2022-09-13T00:22:19;95042.47;;;17.13;94.97
4590;BME280;2307;48.448;9.216;2022-09-13T00:24:45;95047.03;;;17.12;94.65
4590;BME280;2307;48.448;9.216;2022-09-13T00:27:11;95043.50;;;17.17;92.65
4590;BME280;2307;48.448;9.216;2022-09-13T00:29:38;95031.81;;;17.36;92.90
4590;BME280;2307;48.448;9.216;2022-09-13T00:32:04;95032.94;;;17.30;96.86
4590;BME280;2307;48.448;9.216;2022-09-13T00:34:30;95033.75;;;17.31;93.90
4590;BME280;2307;48.448;9.216;2022-09-13T00:36:57;95033.75;;;17.31;93.29
4590;BME280;2307;48.448;9.216;2022-09-13T00:39:25;95027.03;;;17.33;93.27
4590;BME280;2307;48.448;9.216;2022-09-13T00:41:51;95032.06;;;17.35;95.25
4590;BME280;2307;48.448;9.216;2022-09-13T00:47:02;95032.22;;;17.25;92.12
4590;BME280;2307;48.448;9.216;2022-09-13T00:49:30;95042.97;;;17.38;92.92
4590;BME280;2307;48.448;9.216;2022-09-13T00:51:59;95040.66;;;17.32;98.03
4590;BME280;2307;48.448;9.216;2022-09-13T00:54:28;95040.69;;;17.08;100.00
4590;BME280;2307;48.448;9.216;2022-09-13T00:56:57;95047.38;;;17.06;100.00
4590;BME280;2307;48.448;9.216;2022-09-13T00:59:27;95049.63;;;16.93;100.00
4590;BME280;2307;48.448;9.216;2022-09-13T01:01:55;95057.19;;;16.86;100.00
4590;BME280;2307;48.448;9.216;2022-09-13T01:04:23;95047.25;;;16.63;100.00
4590;BME280;2307;48.448;9.216;2022-09-13T01:06:50;95049.94;;;16.63;100.00
4590;BME280;2307;48.448;9.216;2022-09-13T01:09:18;95043.84;;;16.58;100.00
4590;BME280;2307;48.448;9.216;2022-09-13T01:11:46;95049.94;;;16.63;100.00
4590;BME280;2307;48.448;9.216;2022-09-13T01:14:14;95046.13;;;16.69;100.00
4590;BME280;2307;48.448;9.216;2022-09-13T01:16:42;95037.47;;;16.82;100.00
4590;BME280;2307;48.448;9.216;2022-09-13T01:19:08;95031.56;;;16.85;100.00
4590;BME280;2307;48.448;9.216;2022-09-13T01:21:47;95025.91;;;16.92;100.00
4590;BME280;2307;48.448;9.216;2022-09-13T01:24:26;95032.50;;;16.99;100.00
4590;BME280;2307;48.448;9.216;2022-09-13T01:27:08;95025.78;;;16.78;100.00
4590;BME280;2307;48.448;9.216;2022-09-13T01:32:27;95008.09;;;16.59;100.00
4590;BME280;2307;48.448;9.216;2022-09-13T01:34:59;95012.94;;;16.57;100.00
4590;BME280;2307;48.448;9.216;2022-09-13T01:37:32;95016.78;;;16.40;100.00
4590;BME280;2307;48.448;9.216;2022-09-13T01:40:04;95011.56;;;16.59;100.00
4590;BME280;2307;48.448;9.216;2022-09-13T01:42:47;95020.53;;;16.68;100.00
4590;BME280;2307;48.448;9.216;2022-09-13T01:45:19;95014.44;;;16.68;100.00
4590;BME280;2307;48.448;9.216;2022-09-13T01:47:50;95015.50;;;16.67;100.00
4590;BME280;2307;48.448;9.216;2022-09-13T01:50:19;95012.88;;;16.62;100.00
4590;BME280;2307;48.448;9.216;2022-09-13T01:52:49;95023.09;;;16.49;100.00
4590;BME280;2307;48.448;9.216;2022-09-13T01:55:20;95022.75;;;16.61;100.00
4590;BME280;2307;48.448;9.216;2022-09-13T01:57:52;95030.25;;;16.54;100.00
4590;BME280;2307;48.448;9.216;2022-09-13T02:00:20;95030.28;;;16.20;100.00
4590;BME280;2307;48.448;9.216;2022-09-13T02:02:47;95033.69;;;16.26;100.00
4590;BME280;2307;48.448;9.216;2022-09-13T02:05:17;95026.75;;;16.25;100.00
4590;BME280;2307;48.448;9.216;2022-09-13T02:07:49;95027.63;;;16.15;100.00
4590;BME280;2307;48.448;9.216;2022-09-13T02:10:19;95030.72;;;16.27;100.00
4590;BME280;2307;48.448;9.216;2022-09-13T02:12:47;95029.72;;;16.23;100.00
4590;BME280;2307;48.448;9.216;2022-09-13T02:15:16;95031.91;;;16.11;100.00
4590;BME280;2307;48.448;9.216;2022-09-13T02:17:46;95032.22;;;16.05;100.00
4590;BME280;2307;48.448;9.216;2022-09-13T02:20:16;95028.25;;;16.02;100.00
4590;BME280;2307;48.448;9.216;2022-09-13T02:22:47;95029.06;;;16.03;100.00
4590;BME280;2307;48.448;9.216;2022-09-13T02:25:16;95027.31;;;15.88;100.00
4590;BME280;2307;48.448;9.216;2022-09-13T02:27:44;95035.81;;;15.90;100.00
4590;BME280;2307;48.448;9.216;2022-09-13T02:30:12;95038.66;;;16.04;100.00
4590;BME280;2307;48.448;9.216;2022-09-13T02:32:41;95040.28;;;16.00;100.00
4590;BME280;2307;48.448;9.216;2022-09-13T02:35:12;95043.28;;;15.88;100.00
4590;BME280;2307;48.448;9.216;2022-09-13T02:37:41;95050.03;;;15.75;100.00
4590;BME280;2307;48.448;9.216;2022-09-13T02:40:11;95041.88;;;15.95;100.00
4590;BME280;2307;48.448;9.216;2022-09-13T02:42:41;95043.53;;;15.91;100.00
4590;BME280;2307;48.448;9.216;2022-09-13T02:45:08;95051.97;;;16.04;100.00
4590;BME280;2307;48.448;9.216;2022-09-13T02:47:38;95052.78;;;16.04;100.00
4590;BME280;2307;48.448;9.216;2022-09-13T02:50:10;95043.97;;;16.04;100.00
4590;BME280;2307;48.448;9.216;2022-09-13T02:52:42;95045.03;;;16.08;100.00
4590;BME280;2307;48.448;9.216;2022-09-13T02:55:14;95052.47;;;16.11;100.00
4590;BME280;2307;48.448;9.216;2022-09-13T02:57:47;95044.25;;;16.02;100.00
4590;BME280;2307;48.448;9.216;2022-09-13T03:00:16;95042.66;;;16.01;100.00
4590;BME280;2307;48.448;9.216;2022-09-13T03:02:42;95045.34;;;15.96;100.00
4590;BME280;2307;48.448;9.216;2022-09-13T03:05:09;95041.97;;;15.85;100.00
4590;BME280;2307;48.448;9.216;2022-09-13T03:07:36;95050.94;;;16.00;100.00
4590;BME280;2307;48.448;9.216;2022-09-13T03:10:03;95047.44;;;16.04;100.00
4590;BME280;2307;48.448;9.216;2022-09-13T03:12:42;95044.84;;;15.94;100.00
4590;BME280;2307;48.448;9.216;2022-09-13T03:15:12;95056.41;;;15.74;100.00
4590;BME280;2307;48.448;9.216;2022-09-13T03:17:45;95045.25;;;15.67;100.00
4590;BME280;2307;48.448;9.216;2022-09-13T03:20:15;95043.22;;;15.49;100.00
4590;BME280;2307;48.448;9.216;2022-09-13T03:22:48;95035.22;;;15.54;100.00
4590;BME280;2307;48.448;9.216;2022-09-13T03:25:20;95028.31;;;15.43;100.00
4590;BME280;2307;48.448;9.216;2022-09-13T03:27:51;95030.97;;;15.43;100.00
4590;BME280;2307;48.448;9.216;2022-09-13T03:30:20;95019.84;;;15.41;100.00
4590;BME280;2307;48.448;9.216;2022-09-13T03:32:47;95012.88;;;15.50;100.00
4590;BME280;2307;48.448;9.216;2022-09-13T03:35:22;95005.16;;;15.54;100.00
4590;BME280;2307;48.448;9.216;2022-09-13T03:37:53;94992.41;;;15.40;100.00
4590;BME280;2307;48.448;9.216;2022-09-13T03:40:24;94987.34;;;15.39;100.00
4590;BME280;2307;48.448;9.216;2022-09-13T03:42:54;94989.47;;;15.47;100.00
4590;BME280;2307;48.448;9.216;2022-09-13T03:45:26;94993.16;;;15.51;100.00
4590;BME280;2307;48.448;9.216;2022-09-13T03:47:53;94996.88;;;15.55;100.00
4590;BME280;2307;48.448;9.216;2022-09-13T03:50:21;95000.59;;;15.54;100.00
4590;BME280;2307;48.448;9.216;2022-09-13T03:52:49;95001.41;;;15.55;100.00
4590;BME280;2307;48.448;9.216;2022-09-13T03:55:18;94996.31;;;15.58;100.00
4590;BME280;2307;48.448;9.216;2022-09-13T03:57:45;94984.63;;;15.59;100.00
4590;BME280;2307;48.448;9.216;2022-09-13T04:00:13;94985.69;;;15.58;100.00
4590;BME280;2307;48.448;9.216;2022-09-13T04:02:43;94978.81;;;15.52;100.00
4590;BME280;2307;48.448;9.216;2022-09-13T04:05:09;94985.19;;;15.51;100.00
4590;BME280;2307;48.448;9.216;2022-09-13T04:07:36;94985.69;;;15.58;100.00
4590;BME280;2307;48.448;9.216;2022-09-13T04:10:02;94986.66;;;15.72;100.00
4590;BME280;2307;48.448;9.216;2022-09-13T04:12:28;94984.41;;;15.89;100.00
4590;BME280;2307;48.448;9.216;2022-09-13T04:14:55;94982.22;;;15.97;100.00
4590;BME280;2307;48.448;9.216;2022-09-13T04:17:23;94977.53;;;15.83;100.00
4590;BME280;2307;48.448;9.216;2022-09-13T04:19:50;94988.72;;;15.80;100.00
4590;BME280;2307;48.448;9.216;2022-09-13T04:22:17;94988.41;;;15.87;100.00
4590;BME280;2307;48.448;9.216;2022-09-13T04:24:43;94987.88;;;15.90;100.00
4590;BME280;2307;48.448;9.216;2022-09-13T04:27:10;94996.34;;;15.97;100.00
4590;BME280;2307;48.448;9.216;2022-09-13T04:29:36;94995.03;;;15.94;100.00
4590;BME280;2307;48.448;9.216;2022-09-13T04:32:03;94994.44;;;16.03;100.00
4590;BME280;2307;48.448;9.216;2022-09-13T04:34:31;94996.28;;;16.02;100.00
4590;BME280;2307;48.448;9.216;2022-09-13T04:36:57;94999.88;;;15.87;100.00
4590;BME280;2307;48.448;9.216;2022-09-13T04:39:23;95001.00;;;15.76;100.00
4590;BME280;2307;48.448;9.216;2022-09-13T04:41:50;95004.00;;;15.65;100.00
4590;BME280;2307;48.448;9.216;2022-09-13T04:44:18;95008.53;;;15.64;100.00
4590;BME280;2307;48.448;9.216;2022-09-13T04:46:46;95006.38;;;15.71;100.00
4590;BME280;2307;48.448;9.216;2022-09-13T04:49:13;95002.81;;;15.86;100.00
4590;BME280;2307;48.448;9.216;2022-09-13T04:51:41;95005.69;;;15.94;100.00
4590;BME280;2307;48.448;9.216;2022-09-13T04:54:08;95007.00;;;15.97;100.00
4590;BME280;2307;48.448;9.216;2022-09-13T04:56:35;95015.47;;;16.04;100.00
4590;BME280;2307;48.448;9.216;2022-09-13T04:59:01;95020.00;;;16.04;100.00
4590;BME280;2307;48.448;9.216;2022-09-13T05:01:28;95021.91;;;15.98;100.00
4590;BME280;2307;48.448;9.216;2022-09-13T05:03:54;95019.69;;;16.10;100.00
4590;BME280;2307;48.448;9.216;2022-09-13T05:06:21;95020.50;;;16.11;100.00
4590;BME280;2307;48.448;9.216;2022-09-13T05:08:50;95018.09;;;16.09;100.00
4590;BME280;2307;48.448;9.216;2022-09-13T05:11:19;95018.91;;;16.10;100.00
4590;BME280;2307;48.448;9.216;2022-09-13T05:13:47;95022.69;;;15.99;100.00
4590;BME280;2307;48.448;9.216;2022-09-13T05:16:17;95028.03;;;15.99;100.00
4590;BME280;2307;48.448;9.216;2022-09-13T05:18:43;95022.94;;;16.02;100.00
4590;BME280;2307;48.448;9.216;2022-09-13T05:21:09;95028.50;;;16.06;100.00
4590;BME280;2307;48.448;9.216;2022-09-13T05:23:36;95019.47;;;16.02;100.00
4590;BME280;2307;48.448;9.216;2022-09-13T05:26:04;95019.25;;;15.98;100.00
4590;BME280;2307;48.448;9.216;2022-09-13T05:28:32;95006.69;;;16.04;100.00
4590;BME280;2307;48.448;9.216;2022-09-13T05:30:59;95001.13;;;15.95;100.00
4590;BME280;2307;48.448;9.216;2022-09-13T05:33:27;95014.19;;;15.97;100.00
4590;BME280;2307;48.448;9.216;2022-09-13T05:35:54;95018.38;;;16.08;100.00
4590;BME280;2307;48.448;9.216;2022-09-13T05:38:20;95020.28;;;16.02;100.00
4590;BME280;2307;48.448;9.216;2022-09-13T05:40:47;95029.38;;;15.96;100.00
4590;BME280;2307;48.448;9.216;2022-09-13T05:43:15;95029.63;;;16.00;100.00
4590;BME280;2307;48.448;9.216;2022-09-13T05:45:41;95029.13;;;15.92;100.00
4590;BME280;2307;48.448;9.216;2022-09-13T05:48:08;95035.00;;;15.94;100.00
4590;BME280;2307;48.448;9.216;2022-09-13T05:50:37;95040.78;;;16.02;100.00
4590;BME280;2307;48.448;9.216;2022-09-13T05:53:03;95053.97;;;16.22;100.00
4590;BME280;2307;48.448;9.216;2022-09-13T05:55:30;95042.44;;;15.98;100.00
4590;BME280;2307;48.448;9.216;2022-09-13T05:57:56;95051.72;;;16.00;100.00
4590;BME280;2307;48.448;9.216;2022-09-13T06:00:24;95048.88;;;15.91;100.00
4590;BME280;2307;48.448;9.216;2022-09-13T06:02:51;95043.84;;;15.85;100.00
4590;BME280;2307;48.448;9.216;2022-09-13T06:05:17;95049.31;;;15.55;100.00
4590;BME280;2307;48.448;9.216;2022-09-13T06:07:43;95054.94;;;15.38;100.00
4590;BME280;2307;48.448;9.216;2022-09-13T06:10:10;95057.78;;;15.67;100.00
4590;BME280;2307;48.448;9.216;2022-09-13T06:12:37;95064.44;;;15.69;100.00
4590;BME280;2307;48.448;9.216;2022-09-13T06:15:03;95054.38;;;15.51;100.00
4590;BME280;2307;48.448;9.216;2022-09-13T06:17:31;95047.19;;;15.57;100.00
4590;BME280;2307;48.448;9.216;2022-09-13T06:19:57;95040.97;;;15.71;100.00
4590;BME280;2307;48.448;9.216;2022-09-13T06:22:24;95042.03;;;15.70;100.00
4590;BME280;2307;48.448;9.216;2022-09-13T06:24:57;95041.13;;;15.90;100.00
4590;BME280;2307;48.448;9.216;2022-09-13T06:27:23;95042.00;;;15.80;100.00
4590;BME280;2307;48.448;9.216;2022-09-13T06:29:49;95038.22;;;15.86;100.00
4590;BME280;2307;48.448;9.216;2022-09-13T06:32:16;95047.81;;;15.87;100.00
4590;BME280;2307;48.448;9.216;2022-09-13T06:34:43;95055.22;;;15.95;100.00
4590;BME280;2307;48.448;9.216;2022-09-13T06:37:10;95056.16;;;16.15;100.00
4590;BME280;2307;48.448;9.216;2022-09-13T06:39:36;95054.66;;;15.99;100.00
4590;BME280;2307;48.448;9.216;2022-09-13T06:42:03;95055.91;;;16.11;100.00
4590;BME280;2307;48.448;9.216;2022-09-13T06:44:29;95060.47;;;16.06;100.00
4590;BME280;2307;48.448;9.216;2022-09-13T06:46:56;95057.84;;;16.01;100.00
4590;BME280;2307;48.448;9.216;2022-09-13T06:49:22;95061.13;;;15.82;100.00
4590;BME280;2307;48.448;9.216;2022-09-13T06:51:50;95051.84;;;15.80;100.00
4590;BME280;2307;48.448;9.216;2022-09-13T06:54:16;95046.22;;;15.86;100.00
4590;BME280;2307;48.448;9.216;2022-09-13T06:56:42;95049.44;;;15.83;100.00
4590;BME280;2307;48.448;9.216;2022-09-13T06:59:09;95045.22;;;15.77;100.00
4590;BME280;2307;48.448;9.216;2022-09-13T07:01:36;95044.44;;;15.72;100.00
4590;BME280;2307;48.448;9.216;2022-09-13T07:04:03;95039.88;;;15.77;100.00
4590;BME280;2307;48.448;9.216;2022-09-13T07:06:31;95033.19;;;15.80;100.00
4590;BME280;2307;48.448;9.216;2022-09-13T07:09:00;95036.13;;;15.83;100.00
4590;BME280;2307;48.448;9.216;2022-09-13T07:11:28;95045.91;;;15.93;100.00
4590;BME280;2307;48.448;9.216;2022-09-13T07:13:55;95040.03;;;15.96;100.00
4590;BME280;2307;48.448;9.216;2022-09-13T07:16:23;95043.69;;;16.05;100.00
4590;BME280;2307;48.448;9.216;2022-09-13T07:18:50;95040.44;;;16.13;100.00
4590;BME280;2307;48.448;9.216;2022-09-13T07:21:16;95037.56;;;16.05;100.00
4590;BME280;2307;48.448;9.216;2022-09-13T07:23:43;95034.91;;;16.05;100.00
4590;BME280;2307;48.448;9.216;2022-09-13T07:26:10;95046.03;;;16.17;100.00
4590;BME280;2307;48.448;9.216;2022-09-13T07:28:37;95035.88;;;16.19;100.00
4590;BME280;2307;48.448;9.216;2022-09-13T07:31:05;95042.75;;;16.25;100.00
4590;BME280;2307;48.448;9.216;2022-09-13T07:33:32;95043.97;;;16.42;100.00
4590;BME280;2307;48.448;9.216;2022-09-13T07:35:58;95041.88;;;16.68;100.00
4590;BME280;2307;48.448;9.216;2022-09-13T07:38:26;95044.53;;;16.68;100.00
4590;BME280;2307;48.448;9.216;2022-09-13T07:40:53;95045.75;;;16.81;100.00
4590;BME280;2307;48.448;9.216;2022-09-13T07:43:22;95044.28;;;16.93;100.00
4590;BME280;2307;48.448;9.216;2022-09-13T07:45:55;95046.63;;;17.00;100.00
4590;BME280;2307;48.448;9.216;2022-09-13T07:48:22;95046.59;;;17.05;100.00
4590;BME280;2307;48.448;9.216;2022-09-13T07:50:55;95049.25;;;17.05;100.00
4590;BME280;2307;48.448;9.216;2022-09-13T07:53:21;95056.84;;;17.17;100.00
4590;BME280;2307;48.448;9.216;2022-09-13T07:55:47;95052.47;;;17.26;100.00
4590;BME280;2307;48.448;9.216;2022-09-13T07:58:14;95047.38;;;17.29;100.00
4590;BME280;2307;48.448;9.216;2022-09-13T08:00:42;95041.91;;;17.39;100.00
4590;BME280;2307;48.448;9.216;2022-09-13T08:03:08;95039.94;;;17.50;100.00
4590;BME280;2307;48.448;9.216;2022-09-13T08:05:37;95038.22;;;17.59;100.00
4590;BME280;2307;48.448;9.216;2022-09-13T08:08:03;95041.34;;;17.66;100.00
4590;BME280;2307;48.448;9.216;2022-09-13T08:10:31;95044.38;;;17.78;100.00
4590;BME280;2307;48.448;9.216;2022-09-13T08:12:58;95042.66;;;17.87;100.00
4590;BME280;2307;48.448;9.216;2022-09-13T08:15:24;95040.91;;;17.96;100.00
4590;BME280;2307;48.448;9.216;2022-09-13T08:17:52;95034.91;;;18.04;100.00
4590;BME280;2307;48.448;9.216;2022-09-13T08:20:18;95044.06;;;18.17;100.00
4590;BME280;2307;48.448;9.216;2022-09-13T08:22:45;95032.94;;;18.29;100.00
4590;BME280;2307;48.448;9.216;2022-09-13T08:25:11;95030.97;;;18.34;100.00
4590;BME280;2307;48.448;9.216;2022-09-13T08:27:37;95025.28;;;18.41;100.00
4590;BME280;2307;48.448;9.216;2022-09-13T08:30:04;95018.19;;;18.50;100.00
4590;BME280;2307;48.448;9.216;2022-09-13T08:32:31;95010.00;;;18.60;100.00
4590;BME280;2307;48.448;9.216;2022-09-13T08:34:58;95015.19;;;18.70;100.00
4590;BME280;2307;48.448;9.216;2022-09-13T08:37:25;95012.50;;;18.84;100.00
4590;BME280;2307;48.448;9.216;2022-09-13T08:39:51;95014.50;;;18.92;100.00
4590;BME280;2307;48.448;9.216;2022-09-13T08:42:29;95014.13;;;18.98;100.00
4590;BME280;2307;48.448;9.216;2022-09-13T08:44:58;95016.91;;;19.07;100.00
4590;BME280;2307;48.448;9.216;2022-09-13T08:47:34;95011.03;;;19.19;100.00
4590;BME280;2307;48.448;9.216;2022-09-13T08:50:05;95007.56;;;19.32;100.00
4590;BME280;2307;48.448;9.216;2022-09-13T08:52:38;95005.53;;;19.42;100.00
4590;BME280;2307;48.448;9.216;2022-09-13T08:55:17;95012.56;;;19.52;100.00
4590;BME280;2307;48.448;9.216;2022-09-13T08:57:46;95022.06;;;19.58;100.00
4590;BME280;2307;48.448;9.216;2022-09-13T09:00:17;95030.78;;;19.63;100.00
4590;BME280;2307;48.448;9.216;2022-09-13T09:02:53;95030.09;;;19.72;100.00
4590;BME280;2307;48.448;9.216;2022-09-13T09:05:24;95034.25;;;19.78;100.00
4590;BME280;2307;48.448;9.216;2022-09-13T09:07:52;95025.00;;;19.84;100.00
4590;BME280;2307;48.448;9.216;2022-09-13T09:10:22;95032.31;;;19.92;100.00
4590;BME280;2307;48.448;9.216;2022-09-13T09:12:51;95027.03;;;20.00;100.00
4590;BME280;2307;48.448;9.216;2022-09-13T09:15:20;95037.59;;;20.19;100.00
4590;BME280;2307;48.448;9.216;2022-09-13T09:17:49;95042.34;;;20.36;100.00
4590;BME280;2307;48.448;9.216;2022-09-13T09:20:22;95023.81;;;20.48;100.00
4590;BME280;2307;48.448;9.216;2022-09-13T09:22:51;95027.53;;;20.60;100.00
4590;BME280;2307;48.448;9.216;2022-09-13T09:25:19;95014.94;;;20.70;100.00
4590;BME280;2307;48.448;9.216;2022-09-13T09:27:46;95016.44;;;20.84;100.00
4590;BME280;2307;48.448;9.216;2022-09-13T09:30:13;95008.75;;;20.91;100.00
4590;BME280;2307;48.448;9.216;2022-09-13T09:32:46;94997.84;;;20.96;100.00
4590;BME280;2307;48.448;9.216;2022-09-13T09:35:17;94997.75;;;21.01;100.00
4590;BME280;2307;48.448;9.216;2022-09-13T09:37:49;94995.41;;;21.08;100.00
4590;BME280;2307;48.448;9.216;2022-09-13T09:40:22;94992.31;;;21.15;100.00
4590;BME280;2307;48.448;9.216;2022-09-13T09:42:49;94995.63;;;21.21;100.00
4590;BME280;2307;48.448;9.216;2022-09-13T09:45:22;94989.13;;;21.22;100.00
4590;BME280;2307;48.448;9.216;2022-09-13T09:47:50;94988.69;;;21.28;100.00
4590;BME280;2307;48.448;9.216;2022-09-13T09:50:18;94985.25;;;21.36;100.00
4590;BME280;2307;48.448;9.216;2022-09-13T09:52:48;94993.50;;;21.57;100.00
4590;BME280;2307;48.448;9.216;2022-09-13T09:55:24;95005.72;;;21.80;98.94
4590;BME280;2307;48.448;9.216;2022-09-13T09:57:52;95014.63;;;22.15;93.39
4590;BME280;2307;48.448;9.216;2022-09-13T10:00:19;95013.03;;;22.40;82.82
4590;BME280;2307;48.448;9.216;2022-09-13T10:02:47;95011.13;;;22.66;76.46
4590;BME280;2307;48.448;9.216;2022-09-13T10:05:17;95015.22;;;22.89;76.66
4590;BME280;2307;48.448;9.216;2022-09-13T10:07:48;95016.75;;;23.07;72.24
4590;BME280;2307;48.448;9.216;2022-09-13T10:10:19;95028.91;;;23.13;71.62
4590;BME280;2307;48.448;9.216;2022-09-13T10:12:48;95026.22;;;23.13;69.42
4590;BME280;2307;48.448;9.216;2022-09-13T10:15:16;95034.31;;;23.13;69.85
4590;BME280;2307;48.448;9.216;2022-09-13T10:17:44;95032.22;;;23.19;73.15
4590;BME280;2307;48.448;9.216;2022-09-13T10:20:25;95033.97;;;23.23;74.14
4590;BME280;2307;48.448;9.216;2022-09-13T10:23:08;95038.81;;;23.39;75.78
4590;BME280;2307;48.448;9.216;2022-09-13T10:25:36;95044.63;;;23.58;77.11
4590;BME280;2307;48.448;9.216;2022-09-13T10:28:05;95047.88;;;23.72;72.54
4590;BME280;2307;48.448;9.216;2022-09-13T10:30:34;95046.16;;;23.88;71.48
4590;BME280;2307;48.448;9.216;2022-09-13T10:33:02;95046.13;;;23.97;66.53
4590;BME280;2307;48.448;9.216;2022-09-13T10:35:29;95051.91;;;24.07;62.65
4590;BME280;2307;48.448;9.216;2022-09-13T10:37:55;95056.13;;;24.25;63.91
4590;BME280;2307;48.448;9.216;2022-09-13T10:40:23;95042.34;;;24.39;59.43
4590;BME280;2307;48.448;9.216;2022-09-13T10:42:52;95034.66;;;24.50;58.06
4590;BME280;2307;48.448;9.216;2022-09-13T10:45:22;95019.56;;;24.49;55.22
4590;BME280;2307;48.448;9.216;2022-09-13T10:47:49;95021.72;;;24.55;56.39
4590;BME280;2307;48.448;9.216;2022-09-13T10:50:17;95018.53;;;24.74;58.11
4590;BME280;2307;48.448;9.216;2022-09-13T10:52:45;95019.06;;;24.88;56.53
4590;BME280;2307;48.448;9.216;2022-09-13T10:55:22;95023.63;;;25.08;57.75
4590;BME280;2307;48.448;9.216;2022-09-13T10:57:49;95022.97;;;25.35;57.36
4590;BME280;2307;48.448;9.216;2022-09-13T11:00:17;95022.19;;;25.59;54.23
4590;BME280;2307;48.448;9.216;2022-09-13T11:02:53;95027.03;;;25.90;53.75
4590;BME280;2307;48.448;9.216;2022-09-13T11:05:23;95023.41;;;26.22;52.89
4590;BME280;2307;48.448;9.216;2022-09-13T11:10:38;95026.06;;;26.34;49.44
4590;BME280;2307;48.448;9.216;2022-09-13T11:13:13;95017.50;;;26.32;49.10
4590;BME280;2307;48.448;9.216;2022-09-13T11:15:47;95010.75;;;26.26;50.00
4590;BME280;2307;48.448;9.216;2022-09-13T11:18:21;95002.63;;;26.26;50.05
4590;BME280;2307;48.448;9.216;2022-09-13T11:20:52;95014.56;;;26.37;49.44
4590;BME280;2307;48.448;9.216;2022-09-13T11:23:33;95002.13;;;26.36;50.83
4590;BME280;2307;48.448;9.216;2022-09-13T11:26:09;95007.97;;;26.51;50.09
4590;BME280;2307;48.448;9.216;2022-09-13T11:28:44;95003.03;;;26.40;48.96
4590;BME280;2307;48.448;9.216;2022-09-13T11:31:17;95007.28;;;26.54;49.03
4590;BME280;2307;48.448;9.216;2022-09-13T11:33:52;95007.84;;;26.75;50.87
4590;BME280;2307;48.448;9.216;2022-09-13T11:36:42;95008.00;;;26.94;47.52
4590;BME280;2307;48.448;9.216;2022-09-13T11:39:14;95009.00;;;27.17;48.52
4590;BME280;2307;48.448;9.216;2022-09-13T11:41:47;95008.91;;;27.29;47.11
4590;BME280;2307;48.448;9.216;2022-09-13T11:44:23;95008.47;;;27.27;46.40
4590;BME280;2307;48.448;9.216;2022-09-13T11:46:55;95015.84;;;27.74;46.60
4590;BME280;2307;48.448;9.216;2022-09-13T11:49:32;95025.03;;;28.04;44.35
4590;BME280;2307;48.448;9.216;2022-09-13T11:52:02;95024.25;;;28.04;45.11
4590;BME280;2307;48.448;9.216;2022-09-13T11:54:36;95017.00;;;28.08;46.46
4590;BME280;2307;48.448;9.216;2022-09-13T11:57:04;95009.25;;;28.25;46.11
4590;BME280;2307;48.448;9.216;2022-09-13T11:59:34;95001.97;;;28.48;45.24
4590;BME280;2307;48.448;9.216;2022-09-13T12:02:04;95004.25;;;28.46;42.92
4590;BME280;2307;48.448;9.216;2022-09-13T12:04:40;94995.69;;;28.25;44.28
4590;BME280;2307;48.448;9.216;2022-09-13T12:07:11;94983.94;;;28.40;43.40
4590;BME280;2307;48.448;9.216;2022-09-13T12:09:42;94986.38;;;28.45;44.07
4590;BME280;2307;48.448;9.216;2022-09-13T12:12:10;94970.34;;;28.60;43.38
4590;BME280;2307;48.448;9.216;2022-09-13T12:14:40;94971.06;;;28.57;43.76
4590;BME280;2307;48.448;9.216;2022-09-13T12:17:13;94972.78;;;28.65;43.82
4590;BME280;2307;48.448;9.216;2022-09-13T12:19:45;94970.06;;;28.65;42.56
4590;BME280;2307;48.448;9.216;2022-09-13T12:22:13;94978.69;;;28.67;41.86
4590;BME280;2307;48.448;9.216;2022-09-13T12:24:42;94984.78;;;28.64;41.48
4590;BME280;2307;48.448;9.216;2022-09-13T12:27:11;94983.41;;;28.70;42.54
4590;BME280;2307;48.448;9.216;2022-09-13T12:29:39;94979.97;;;28.73;41.85
4590;BME280;2307;48.448;9.216;2022-09-13T12:32:08;94983.19;;;29.01;40.49
4590;BME280;2307;48.448;9.216;2022-09-13T12:34:37;94973.75;;;29.18;41.58
4590;BME280;2307;48.448;9.216;2022-09-13T12:37:09;94972.22;;;29.39;40.47
4590;BME280;2307;48.448;9.216;2022-09-13T12:39:43;94967.38;;;29.29;39.70
4590;BME280;2307;48.448;9.216;2022-09-13T12:45:07;94968.44;;;29.02;40.08
4590;BME280;2307;48.448;9.216;2022-09-13T12:47:43;94973.81;;;28.76;39.15
4590;BME280;2307;48.448;9.216;2022-09-13T12:53:03;94965.22;;;28.74;39.64
4590;BME280;2307;48.448;9.216;2022-09-13T12:55:42;94963.69;;;28.76;39.05
4590;BME280;2307;48.448;9.216;2022-09-13T12:58:16;94958.31;;;28.80;40.53
4590;BME280;2307;48.448;9.216;2022-09-13T13:00:47;94962.94;;;28.76;40.09
4590;BME280;2307;48.448;9.216;2022-09-13T13:03:28;94957.69;;;28.67;41.35
4590;BME280;2307;48.448;9.216;2022-09-13T13:05:56;94957.34;;;28.49;41.96
4590;BME280;2307;48.448;9.216;2022-09-13T13:08:33;94952.41;;;28.36;40.67
4590;BME280;2307;48.448;9.216;2022-09-13T13:11:01;94941.13;;;28.34;40.71
4590;BME280;2307;48.448;9.216;2022-09-13T13:13:31;94936.41;;;28.31;41.66
4590;BME280;2307;48.448;9.216;2022-09-13T13:16:00;94932.56;;;28.32;41.43
4590;BME280;2307;48.448;9.216;2022-09-13T13:18:27;94929.63;;;28.40;41.05
4590;BME280;2307;48.448;9.216;2022-09-13T13:21:05;94923.19;;;28.29;41.05
4590;BME280;2307;48.448;9.216;2022-09-13T13:23:47;94927.25;;;28.39;41.49
4590;BME280;2307;48.448;9.216;2022-09-13T13:26:44;94931.78;;;28.31;41.58
4590;BME280;2307;48.448;9.216;2022-09-13T13:29:18;94928.31;;;28.54;40.79
4590;BME280;2307;48.448;9.216;2022-09-13T13:32:08;94928.03;;;28.39;41.23
4590;BME280;2307;48.448;9.216;2022-09-13T13:34:37;94921.81;;;28.39;41.60
4590;BME280;2307;48.448;9.216;2022-09-13T13:37:04;94924.03;;;28.33;41.36
4590;BME280;2307;48.448;9.216;2022-09-13T13:39:49;94917.47;;;28.34;41.46